KHLB/HLB METAR and TAF weather

Enter ICAO airport designator
Station Type Date Time Source
KHLB METAR 2022/12/10 01:55 UTC NOAA

KHLB 100155Z AUTO 00000KT 2 1/2SM BR OVC003 07/07 A3012 RMK A01


Station Type Date Time Source
KHLB Decoded METAR 2022/12/10 01:55 UTC NOAA

Station name not available
Dec 09, 2022 - 08:55 PM EST / 2022.12.10 0155 UTC
Wind: Calm:0
Visibility: 2 1/2 mile(s):0
Sky conditions: overcast
Weather: mist
Temperature: 44 F (7 C)
Dew Point: 44 F (7 C)
Relative Humidity: 100%
Pressure (altimeter): 30.12 in. Hg (1019 hPa)
ob: KHLB 100155Z AUTO 00000KT 2 1/2SM BR OVC003 07/07 A3012 RMK A01
cycle: 2

Station Type Date Time Source
KHLB TAF UTC NOAA

Error!

Example: see airport list